CPY5 weather

Wilson's Heliport
Toronto, Ontario, Canada

Public forecast

Using degrees Celsius for public forecast. Weather courtesy of forecast.io.

Closest aviation weather report (METAR) to Wilson's Heliport

Closest report is Lester B. Pearson International Airport, 4.6 nm (8.5 km) NW. Retrieved 2019/12/11 21:43 UTC (16 minutes ago):

CYYZ 112143Z 27023G33KT 3SM -SHSN FEW008 BKN020 BKN035 M07/M12 A3030 RMK SF2CU3SC1 SLP274

Closest aviation forecast (TAF) to Wilson's Heliport

Closest forecast is Lester B. Pearson International Airport, 4.6 nm (8.5 km) NW. Retrieved 2019/12/11 21:39 UTC (20 minutes ago):

TAF CYYZ 112038Z 1121/1224 28020G30KT P6SM -SHSN BKN040 TEMPO 1121/1122 21/2SM -SHSN FM112200 27017G27KT P6SM BKN040 TEMPO 1122/1123 5SM -SHSN FM112300 27015G25KT P6SM SCT030 BECMG 1201/1203 26010G20KT BECMG 1205/1207 25008KT FM121200 22006KT P6SM BKN100 FM121700 17010KT P6SM BKN025 OVC080 FM122200 18012KT P6SM SCT025 OVC180 RMK NXT FCST BY 120000Z